sensor_id;sensor_type;location;lat;lon;timestamp;P1;durP1;ratioP1;P2;durP2;ratioP2
71125;SDS011;58785;55.566;38.058;2024-03-23T00:53:53;32.23;;;11.53;;
71125;SDS011;58785;55.566;38.058;2024-03-23T00:56:20;29.75;;;9.90;;
71125;SDS011;58785;55.566;38.058;2024-03-23T00:58:45;35.08;;;10.25;;
71125;SDS011;58785;55.566;38.058;2024-03-23T01:01:11;29.03;;;10.20;;
71125;SDS011;58785;55.566;38.058;2024-03-23T01:03:36;25.98;;;9.65;;
71125;SDS011;58785;55.566;38.058;2024-03-23T01:06:02;26.03;;;9.07;;
71125;SDS011;58785;55.566;38.058;2024-03-23T01:08:31;24.33;;;10.13;;
71125;SDS011;58785;55.566;38.058;2024-03-23T01:11:00;27.90;;;10.00;;
71125;SDS011;58785;55.566;38.058;2024-03-23T01:13:27;24.93;;;9.77;;
71125;SDS011;58785;55.566;38.058;2024-03-23T01:15:54;20.35;;;8.68;;
71125;SDS011;58785;55.566;38.058;2024-03-23T01:18:21;25.10;;;9.60;;
71125;SDS011;58785;55.566;38.058;2024-03-23T01:20:47;28.55;;;10.00;;
71125;SDS011;58785;55.566;38.058;2024-03-23T01:23:13;23.40;;;8.83;;
71125;SDS011;58785;55.566;38.058;2024-03-23T01:25:39;23.97;;;10.83;;
71125;SDS011;58785;55.566;38.058;2024-03-23T01:28:05;29.40;;;10.40;;
71125;SDS011;58785;55.566;38.058;2024-03-23T01:30:34;23.67;;;9.07;;
71125;SDS011;58785;55.566;38.058;2024-03-23T01:33:00;27.80;;;9.35;;
71125;SDS011;58785;55.566;38.058;2024-03-23T01:35:28;24.52;;;9.90;;
71125;SDS011;58785;55.566;38.058;2024-03-23T01:37:54;26.42;;;10.45;;
71125;SDS011;58785;55.566;38.058;2024-03-23T01:40:19;25.40;;;9.43;;
71125;SDS011;58785;55.566;38.058;2024-03-23T01:42:54;29.80;;;9.90;;
71125;SDS011;58785;55.566;38.058;2024-03-23T01:45:23;29.10;;;10.60;;
71125;SDS011;58785;55.566;38.058;2024-03-23T01:47:49;27.13;;;9.57;;
71125;SDS011;58785;55.566;38.058;2024-03-23T01:50:16;25.67;;;9.05;;
71125;SDS011;58785;55.566;38.058;2024-03-23T01:52:42;27.23;;;9.70;;
71125;SDS011;58785;55.566;38.058;2024-03-23T01:55:07;26.50;;;9.63;;
71125;SDS011;58785;55.566;38.058;2024-03-23T01:57:33;28.35;;;9.63;;
71125;SDS011;58785;55.566;38.058;2024-03-23T01:59:59;36.30;;;10.75;;
71125;SDS011;58785;55.566;38.058;2024-03-23T02:02:25;34.10;;;9.27;;
71125;SDS011;58785;55.566;38.058;2024-03-23T02:04:50;35.63;;;10.83;;
71125;SDS011;58785;55.566;38.058;2024-03-23T02:07:16;28.63;;;9.43;;
71125;SDS011;58785;55.566;38.058;2024-03-23T02:09:41;29.03;;;10.17;;
71125;SDS011;58785;55.566;38.058;2024-03-23T02:12:08;28.02;;;9.95;;
71125;SDS011;58785;55.566;38.058;2024-03-23T02:14:34;28.63;;;10.55;;
71125;SDS011;58785;55.566;38.058;2024-03-23T02:17:00;29.55;;;10.55;;
71125;SDS011;58785;55.566;38.058;2024-03-23T02:19:26;28.67;;;10.03;;
71125;SDS011;58785;55.566;38.058;2024-03-23T02:21:51;30.27;;;11.20;;
71125;SDS011;58785;55.566;38.058;2024-03-23T02:24:17;26.90;;;10.20;;
71125;SDS011;58785;55.566;38.058;2024-03-23T02:26:43;31.73;;;8.95;;
71125;SDS011;58785;55.566;38.058;2024-03-23T02:29:08;36.47;;;11.33;;
71125;SDS011;58785;55.566;38.058;2024-03-23T02:31:34;30.50;;;9.38;;
71125;SDS011;58785;55.566;38.058;2024-03-23T02:34:01;29.13;;;9.73;;
71125;SDS011;58785;55.566;38.058;2024-03-23T02:36:26;25.00;;;9.37;;
71125;SDS011;58785;55.566;38.058;2024-03-23T02:38:52;31.87;;;9.73;;
71125;SDS011;58785;55.566;38.058;2024-03-23T02:41:17;26.00;;;10.27;;
71125;SDS011;58785;55.566;38.058;2024-03-23T02:43:51;27.05;;;8.68;;
71125;SDS011;58785;55.566;38.058;2024-03-23T02:46:16;34.07;;;10.70;;
71125;SDS011;58785;55.566;38.058;2024-03-23T02:48:42;29.40;;;9.98;;
71125;SDS011;58785;55.566;38.058;2024-03-23T02:51:08;25.80;;;9.02;;
71125;SDS011;58785;55.566;38.058;2024-03-23T02:53:34;28.40;;;8.57;;
71125;SDS011;58785;55.566;38.058;2024-03-23T02:55:59;22.52;;;8.80;;
71125;SDS011;58785;55.566;38.058;2024-03-23T02:58:25;24.13;;;7.87;;
71125;SDS011;58785;55.566;38.058;2024-03-23T03:00:51;19.98;;;8.30;;
71125;SDS011;58785;55.566;38.058;2024-03-23T03:03:17;20.77;;;7.67;;
71125;SDS011;58785;55.566;38.058;2024-03-23T03:05:42;28.27;;;9.15;;
71125;SDS011;58785;55.566;38.058;2024-03-23T03:08:08;28.50;;;9.87;;
71125;SDS011;58785;55.566;38.058;2024-03-23T03:10:34;31.95;;;9.90;;
71125;SDS011;58785;55.566;38.058;2024-03-23T03:13:01;26.97;;;8.87;;
71125;SDS011;58785;55.566;38.058;2024-03-23T03:15:27;41.13;;;9.10;;
71125;SDS011;58785;55.566;38.058;2024-03-23T03:17:53;28.95;;;9.13;;
71125;SDS011;58785;55.566;38.058;2024-03-23T03:20:19;24.98;;;7.97;;
71125;SDS011;58785;55.566;38.058;2024-03-23T03:22:47;29.03;;;8.40;;
71125;SDS011;58785;55.566;38.058;2024-03-23T03:25:12;24.90;;;8.80;;
71125;SDS011;58785;55.566;38.058;2024-03-23T03:27:38;25.50;;;7.97;;
71125;SDS011;58785;55.566;38.058;2024-03-23T03:30:04;20.55;;;7.72;;
71125;SDS011;58785;55.566;38.058;2024-03-23T03:32:32;23.73;;;9.35;;
71125;SDS011;58785;55.566;38.058;2024-03-23T03:34:57;23.00;;;8.10;;
71125;SDS011;58785;55.566;38.058;2024-03-23T03:37:23;19.05;;;8.65;;
71125;SDS011;58785;55.566;38.058;2024-03-23T03:39:49;25.88;;;7.95;;
71125;SDS011;58785;55.566;38.058;2024-03-23T03:42:15;22.00;;;7.67;;
71125;SDS011;58785;55.566;38.058;2024-03-23T03:44:40;26.67;;;9.03;;
71125;SDS011;58785;55.566;38.058;2024-03-23T03:47:06;22.63;;;8.00;;
71125;SDS011;58785;55.566;38.058;2024-03-23T03:49:32;25.27;;;8.32;;
71125;SDS011;58785;55.566;38.058;2024-03-23T03:51:57;26.43;;;8.00;;
71125;SDS011;58785;55.566;38.058;2024-03-23T03:54:23;24.93;;;8.67;;
71125;SDS011;58785;55.566;38.058;2024-03-23T03:56:48;24.13;;;7.93;;
71125;SDS011;58785;55.566;38.058;2024-03-23T03:59:14;25.33;;;9.23;;
71125;SDS011;58785;55.566;38.058;2024-03-23T04:01:40;33.97;;;9.50;;
71125;SDS011;58785;55.566;38.058;2024-03-23T04:04:06;33.23;;;9.10;;
71125;SDS011;58785;55.566;38.058;2024-03-23T04:06:32;20.17;;;7.38;;
71125;SDS011;58785;55.566;38.058;2024-03-23T04:08:58;25.70;;;7.72;;
71125;SDS011;58785;55.566;38.058;2024-03-23T04:11:24;30.30;;;9.63;;
71125;SDS011;58785;55.566;38.058;2024-03-23T04:13:50;33.22;;;8.95;;
71125;SDS011;58785;55.566;38.058;2024-03-23T04:16:37;28.77;;;8.70;;
71125;SDS011;58785;55.566;38.058;2024-03-23T04:19:03;20.02;;;7.45;;
71125;SDS011;58785;55.566;38.058;2024-03-23T04:21:29;24.50;;;7.93;;
71125;SDS011;58785;55.566;38.058;2024-03-23T04:23:54;19.67;;;7.87;;
71125;SDS011;58785;55.566;38.058;2024-03-23T04:26:20;19.03;;;7.37;;
71125;SDS011;58785;55.566;38.058;2024-03-23T04:28:45;19.20;;;7.47;;
71125;SDS011;58785;55.566;38.058;2024-03-23T04:31:11;19.65;;;8.35;;
71125;SDS011;58785;55.566;38.058;2024-03-23T04:33:37;20.80;;;8.63;;
71125;SDS011;58785;55.566;38.058;2024-03-23T04:36:03;25.80;;;8.27;;
71125;SDS011;58785;55.566;38.058;2024-03-23T04:38:29;25.35;;;7.82;;
71125;SDS011;58785;55.566;38.058;2024-03-23T04:40:57;21.37;;;8.70;;
71125;SDS011;58785;55.566;38.058;2024-03-23T04:43:25;21.02;;;8.73;;
71125;SDS011;58785;55.566;38.058;2024-03-23T04:45:51;28.98;;;8.82;;
71125;SDS011;58785;55.566;38.058;2024-03-23T04:48:19;26.10;;;8.40;;
71125;SDS011;58785;55.566;38.058;2024-03-23T04:50:46;24.73;;;7.20;;
71125;SDS011;58785;55.566;38.058;2024-03-23T04:53:11;27.13;;;7.85;;
71125;SDS011;58785;55.566;38.058;2024-03-23T04:55:37;22.10;;;7.90;;
71125;SDS011;58785;55.566;38.058;2024-03-23T04:58:03;18.55;;;7.90;;
71125;SDS011;58785;55.566;38.058;2024-03-23T05:00:28;23.33;;;8.17;;
71125;SDS011;58785;55.566;38.058;2024-03-23T05:02:54;24.57;;;8.60;;
71125;SDS011;58785;55.566;38.058;2024-03-23T05:05:19;19.10;;;7.00;;
71125;SDS011;58785;55.566;38.058;2024-03-23T05:07:45;23.77;;;7.87;;
71125;SDS011;58785;55.566;38.058;2024-03-23T05:10:11;21.63;;;8.45;;
71125;SDS011;58785;55.566;38.058;2024-03-23T05:12:38;21.95;;;8.32;;
71125;SDS011;58785;55.566;38.058;2024-03-23T05:15:04;22.10;;;7.77;;
71125;SDS011;58785;55.566;38.058;2024-03-23T05:17:31;21.48;;;8.05;;
71125;SDS011;58785;55.566;38.058;2024-03-23T05:19:57;19.83;;;6.85;;
71125;SDS011;58785;55.566;38.058;2024-03-23T05:22:23;21.47;;;7.97;;
71125;SDS011;58785;55.566;38.058;2024-03-23T05:24:49;22.25;;;7.75;;
71125;SDS011;58785;55.566;38.058;2024-03-23T05:27:14;21.80;;;7.83;;
71125;SDS011;58785;55.566;38.058;2024-03-23T05:29:40;19.03;;;7.70;;
71125;SDS011;58785;55.566;38.058;2024-03-23T05:32:05;22.85;;;8.60;;
71125;SDS011;58785;55.566;38.058;2024-03-23T05:34:31;28.13;;;8.88;;
71125;SDS011;58785;55.566;38.058;2024-03-23T05:36:57;22.67;;;7.97;;
71125;SDS011;58785;55.566;38.058;2024-03-23T05:39:23;25.13;;;9.13;;
71125;SDS011;58785;55.566;38.058;2024-03-23T05:41:49;19.60;;;7.97;;
71125;SDS011;58785;55.566;38.058;2024-03-23T05:44:15;29.70;;;8.52;;
71125;SDS011;58785;55.566;38.058;2024-03-23T05:46:41;22.48;;;7.22;;
71125;SDS011;58785;55.566;38.058;2024-03-23T05:49:07;18.10;;;7.40;;
71125;SDS011;58785;55.566;38.058;2024-03-23T05:51:32;31.05;;;8.65;;
71125;SDS011;58785;55.566;38.058;2024-03-23T05:53:58;20.17;;;8.03;;
71125;SDS011;58785;55.566;38.058;2024-03-23T05:56:24;28.10;;;9.13;;
71125;SDS011;58785;55.566;38.058;2024-03-23T05:58:51;25.95;;;8.55;;
71125;SDS011;58785;55.566;38.058;2024-03-23T06:01:17;22.07;;;8.03;;
71125;SDS011;58785;55.566;38.058;2024-03-23T06:03:43;21.88;;;8.68;;
71125;SDS011;58785;55.566;38.058;2024-03-23T06:06:09;23.58;;;9.50;;
71125;SDS011;58785;55.566;38.058;2024-03-23T06:08:37;20.48;;;8.07;;
71125;SDS011;58785;55.566;38.058;2024-03-23T06:11:03;20.50;;;8.07;;
71125;SDS011;58785;55.566;38.058;2024-03-23T06:13:31;26.27;;;9.50;;
71125;SDS011;58785;55.566;38.058;2024-03-23T06:15:58;29.33;;;10.05;;
71125;SDS011;58785;55.566;38.058;2024-03-23T06:18:24;25.70;;;9.43;;
71125;SDS011;58785;55.566;38.058;2024-03-23T06:20:49;26.80;;;9.23;;
71125;SDS011;58785;55.566;38.058;2024-03-23T06:23:15;27.70;;;8.40;;
71125;SDS011;58785;55.566;38.058;2024-03-23T06:25:42;26.83;;;9.82;;
71125;SDS011;58785;55.566;38.058;2024-03-23T06:28:08;26.83;;;9.57;;
71125;SDS011;58785;55.566;38.058;2024-03-23T06:30:34;26.97;;;8.70;;
71125;SDS011;58785;55.566;38.058;2024-03-23T06:32:59;30.35;;;10.13;;
71125;SDS011;58785;55.566;38.058;2024-03-23T06:35:25;26.07;;;10.17;;
71125;SDS011;58785;55.566;38.058;2024-03-23T06:37:51;33.97;;;10.15;;
71125;SDS011;58785;55.566;38.058;2024-03-23T06:40:16;31.33;;;11.17;;
71125;SDS011;58785;55.566;38.058;2024-03-23T06:42:42;29.87;;;9.50;;
71125;SDS011;58785;55.566;38.058;2024-03-23T06:45:07;23.57;;;8.47;;
71125;SDS011;58785;55.566;38.058;2024-03-23T06:47:33;23.50;;;8.60;;
71125;SDS011;58785;55.566;38.058;2024-03-23T06:49:59;20.80;;;7.70;;
71125;SDS011;58785;55.566;38.058;2024-03-23T06:52:31;21.70;;;8.57;;
71125;SDS011;58785;55.566;38.058;2024-03-23T06:54:57;22.08;;;8.95;;
71125;SDS011;58785;55.566;38.058;2024-03-23T06:57:23;24.67;;;9.03;;
71125;SDS011;58785;55.566;38.058;2024-03-23T06:59:48;25.50;;;9.52;;
71125;SDS011;58785;55.566;38.058;2024-03-23T07:02:15;21.90;;;8.45;;
71125;SDS011;58785;55.566;38.058;2024-03-23T07:04:41;26.37;;;10.00;;
71125;SDS011;58785;55.566;38.058;2024-03-23T07:07:07;23.95;;;8.50;;
71125;SDS011;58785;55.566;38.058;2024-03-23T07:09:32;19.90;;;7.27;;
71125;SDS011;58785;55.566;38.058;2024-03-23T07:11:58;20.23;;;8.27;;
71125;SDS011;58785;55.566;38.058;2024-03-23T07:14:24;24.38;;;9.80;;
71125;SDS011;58785;55.566;38.058;2024-03-23T07:16:50;24.50;;;9.13;;
71125;SDS011;58785;55.566;38.058;2024-03-23T07:19:17;24.55;;;8.48;;
71125;SDS011;58785;55.566;38.058;2024-03-23T07:21:43;19.92;;;8.30;;
71125;SDS011;58785;55.566;38.058;2024-03-23T07:24:10;23.80;;;9.05;;
71125;SDS011;58785;55.566;38.058;2024-03-23T07:26:36;22.90;;;8.63;;
71125;SDS011;58785;55.566;38.058;2024-03-23T07:29:04;27.03;;;9.57;;
71125;SDS011;58785;55.566;38.058;2024-03-23T07:31:30;26.33;;;8.98;;
71125;SDS011;58785;55.566;38.058;2024-03-23T07:33:56;26.92;;;9.45;;
71125;SDS011;58785;55.566;38.058;2024-03-23T07:36:21;25.73;;;10.00;;
71125;SDS011;58785;55.566;38.058;2024-03-23T07:38:47;27.45;;;9.40;;
71125;SDS011;58785;55.566;38.058;2024-03-23T07:41:17;28.03;;;9.17;;
71125;SDS011;58785;55.566;38.058;2024-03-23T07:43:44;21.00;;;8.77;;
71125;SDS011;58785;55.566;38.058;2024-03-23T07:46:11;30.88;;;8.98;;
71125;SDS011;58785;55.566;38.058;2024-03-23T07:48:40;26.40;;;9.47;;
71125;SDS011;58785;55.566;38.058;2024-03-23T07:51:08;24.50;;;9.00;;
71125;SDS011;58785;55.566;38.058;2024-03-23T07:53:35;24.15;;;8.90;;
71125;SDS011;58785;55.566;38.058;2024-03-23T07:56:06;22.63;;;9.10;;
71125;SDS011;58785;55.566;38.058;2024-03-23T07:58:33;22.25;;;8.85;;
71125;SDS011;58785;55.566;38.058;2024-03-23T08:01:09;21.27;;;8.27;;
71125;SDS011;58785;55.566;38.058;2024-03-23T08:03:37;19.40;;;8.38;;
71125;SDS011;58785;55.566;38.058;2024-03-23T08:06:08;20.45;;;7.40;;
71125;SDS011;58785;55.566;38.058;2024-03-23T08:08:34;23.40;;;8.15;;
71125;SDS011;58785;55.566;38.058;2024-03-23T08:11:00;21.25;;;8.82;;
71125;SDS011;58785;55.566;38.058;2024-03-23T08:13:26;18.70;;;8.03;;
71125;SDS011;58785;55.566;38.058;2024-03-23T08:15:52;21.73;;;8.05;;
71125;SDS011;58785;55.566;38.058;2024-03-23T08:18:21;17.65;;;7.93;;
71125;SDS011;58785;55.566;38.058;2024-03-23T08:20:47;19.90;;;7.80;;
71125;SDS011;58785;55.566;38.058;2024-03-23T08:23:20;16.85;;;7.90;;
71125;SDS011;58785;55.566;38.058;2024-03-23T08:25:46;20.43;;;8.20;;
71125;SDS011;58785;55.566;38.058;2024-03-23T08:28:12;23.50;;;8.30;;
71125;SDS011;58785;55.566;38.058;2024-03-23T08:30:37;18.83;;;8.17;;
71125;SDS011;58785;55.566;38.058;2024-03-23T08:33:03;22.73;;;8.10;;
71125;SDS011;58785;55.566;38.058;2024-03-23T08:35:29;16.63;;;8.50;;
71125;SDS011;58785;55.566;38.058;2024-03-23T08:37:54;19.15;;;8.43;;
71125;SDS011;58785;55.566;38.058;2024-03-23T08:40:20;19.37;;;7.90;;
71125;SDS011;58785;55.566;38.058;2024-03-23T08:42:46;18.95;;;9.00;;
71125;SDS011;58785;55.566;38.058;2024-03-23T08:45:11;19.57;;;8.33;;
71125;SDS011;58785;55.566;38.058;2024-03-23T08:47:37;21.95;;;8.10;;
71125;SDS011;58785;55.566;38.058;2024-03-23T08:50:03;24.17;;;8.00;;
71125;SDS011;58785;55.566;38.058;2024-03-23T08:52:29;15.88;;;7.65;;
71125;SDS011;58785;55.566;38.058;2024-03-23T08:54:55;18.90;;;8.02;;
71125;SDS011;58785;55.566;38.058;2024-03-23T08:57:22;19.47;;;7.93;;
71125;SDS011;58785;55.566;38.058;2024-03-23T08:59:48;16.38;;;7.60;;
71125;SDS011;58785;55.566;38.058;2024-03-23T09:02:14;14.40;;;6.40;;
71125;SDS011;58785;55.566;38.058;2024-03-23T09:04:40;16.93;;;6.73;;
71125;SDS011;58785;55.566;38.058;2024-03-23T09:07:06;15.80;;;7.00;;
71125;SDS011;58785;55.566;38.058;2024-03-23T09:09:31;15.83;;;7.17;;
71125;SDS011;58785;55.566;38.058;2024-03-23T09:11:57;17.63;;;6.53;;
71125;SDS011;58785;55.566;38.058;2024-03-23T09:14:22;18.55;;;6.60;;
71125;SDS011;58785;55.566;38.058;2024-03-23T09:16:51;14.03;;;6.07;;
71125;SDS011;58785;55.566;38.058;2024-03-23T09:19:17;17.10;;;7.00;;
71125;SDS011;58785;55.566;38.058;2024-03-23T09:21:43;13.85;;;5.57;;
71125;SDS011;58785;55.566;38.058;2024-03-23T09:24:09;15.90;;;6.43;;
71125;SDS011;58785;55.566;38.058;2024-03-23T09:26:34;15.50;;;6.72;;
71125;SDS011;58785;55.566;38.058;2024-03-23T09:29:00;15.27;;;6.07;;
71125;SDS011;58785;55.566;38.058;2024-03-23T09:31:25;13.30;;;6.10;;
71125;SDS011;58785;55.566;38.058;2024-03-23T09:33:51;13.27;;;5.77;;
71125;SDS011;58785;55.566;38.058;2024-03-23T09:36:18;15.38;;;6.80;;
71125;SDS011;58785;55.566;38.058;2024-03-23T09:38:44;15.85;;;6.07;;
71125;SDS011;58785;55.566;38.058;2024-03-23T09:41:09;11.30;;;5.00;;
71125;SDS011;58785;55.566;38.058;2024-03-23T09:43:35;13.35;;;5.55;;
71125;SDS011;58785;55.566;38.058;2024-03-23T09:46:03;14.37;;;5.17;;
71125;SDS011;58785;55.566;38.058;2024-03-23T09:48:29;12.02;;;4.97;;
71125;SDS011;58785;55.566;38.058;2024-03-23T09:50:55;14.27;;;5.53;;
71125;SDS011;58785;55.566;38.058;2024-03-23T09:53:21;12.47;;;4.90;;
71125;SDS011;58785;55.566;38.058;2024-03-23T09:55:48;14.15;;;5.45;;
71125;SDS011;58785;55.566;38.058;2024-03-23T09:58:14;11.75;;;4.95;;
71125;SDS011;58785;55.566;38.058;2024-03-23T10:00:41;12.27;;;5.30;;
71125;SDS011;58785;55.566;38.058;2024-03-23T10:03:07;11.90;;;4.78;;
71125;SDS011;58785;55.566;38.058;2024-03-23T10:05:36;12.75;;;5.22;;
71125;SDS011;58785;55.566;38.058;2024-03-23T10:10:40;12.02;;;4.85;;
71125;SDS011;58785;55.566;38.058;2024-03-23T10:13:06;12.63;;;4.90;;
71125;SDS011;58785;55.566;38.058;2024-03-23T10:15:35;12.15;;;4.63;;
71125;SDS011;58785;55.566;38.058;2024-03-23T10:23:30;11.15;;;4.57;;
71125;SDS011;58785;55.566;38.058;2024-03-23T10:26:11;12.15;;;5.03;;
71125;SDS011;58785;55.566;38.058;2024-03-23T10:28:57;11.95;;;4.80;;
71125;SDS011;58785;55.566;38.058;2024-03-23T10:31:27;11.75;;;4.78;;
71125;SDS011;58785;55.566;38.058;2024-03-23T10:33:53;12.27;;;4.97;;
71125;SDS011;58785;55.566;38.058;2024-03-23T10:36:20;10.48;;;4.80;;
71125;SDS011;58785;55.566;38.058;2024-03-23T10:38:47;10.85;;;5.13;;
71125;SDS011;58785;55.566;38.058;2024-03-23T10:41:14;9.00;;;3.88;;
71125;SDS011;58785;55.566;38.058;2024-03-23T10:43:40;10.77;;;4.80;;
71125;SDS011;58785;55.566;38.058;2024-03-23T10:46:08;10.40;;;4.50;;
71125;SDS011;58785;55.566;38.058;2024-03-23T10:48:34;9.23;;;4.35;;
71125;SDS011;58785;55.566;38.058;2024-03-23T10:51:00;12.68;;;4.72;;
71125;SDS011;58785;55.566;38.058;2024-03-23T10:53:26;12.90;;;5.37;;
71125;SDS011;58785;55.566;38.058;2024-03-23T10:55:52;13.98;;;5.03;;
71125;SDS011;58785;55.566;38.058;2024-03-23T10:58:30;13.23;;;5.28;;
71125;SDS011;58785;55.566;38.058;2024-03-23T11:00:58;14.05;;;5.32;;
71125;SDS011;58785;55.566;38.058;2024-03-23T11:03:33;13.87;;;5.83;;
71125;SDS011;58785;55.566;38.058;2024-03-23T11:06:06;12.02;;;5.28;;
71125;SDS011;58785;55.566;38.058;2024-03-23T11:08:37;11.68;;;5.72;;
71125;SDS011;58785;55.566;38.058;2024-03-23T11:11:22;11.65;;;4.90;;
71125;SDS011;58785;55.566;38.058;2024-03-23T11:13:50;12.57;;;5.90;;
71125;SDS011;58785;55.566;38.058;2024-03-23T11:16:27;15.77;;;6.10;;
71125;SDS011;58785;55.566;38.058;2024-03-23T11:22:04;14.05;;;6.18;;
71125;SDS011;58785;55.566;38.058;2024-03-23T11:24:31;11.75;;;5.80;;
71125;SDS011;58785;55.566;38.058;2024-03-23T11:26:57;12.35;;;5.28;;
71125;SDS011;58785;55.566;38.058;2024-03-23T11:29:29;13.27;;;5.33;;
71125;SDS011;58785;55.566;38.058;2024-03-23T11:31:55;12.48;;;5.22;;
71125;SDS011;58785;55.566;38.058;2024-03-23T11:34:21;11.23;;;4.82;;
71125;SDS011;58785;55.566;38.058;2024-03-23T11:36:47;12.03;;;5.70;;
71125;SDS011;58785;55.566;38.058;2024-03-23T11:39:19;15.02;;;5.78;;
71125;SDS011;58785;55.566;38.058;2024-03-23T11:41:52;11.77;;;5.43;;
71125;SDS011;58785;55.566;38.058;2024-03-23T11:44:19;16.30;;;6.65;;
71125;SDS011;58785;55.566;38.058;2024-03-23T11:46:47;17.55;;;7.13;;
71125;SDS011;58785;55.566;38.058;2024-03-23T11:49:26;12.90;;;6.50;;
71125;SDS011;58785;55.566;38.058;2024-03-23T11:51:57;12.38;;;5.28;;
71125;SDS011;58785;55.566;38.058;2024-03-23T11:54:23;12.52;;;5.90;;
71125;SDS011;58785;55.566;38.058;2024-03-23T11:56:53;15.13;;;5.82;;
71125;SDS011;58785;55.566;38.058;2024-03-23T11:59:35;16.42;;;6.18;;
71125;SDS011;58785;55.566;38.058;2024-03-23T12:02:06;12.20;;;5.47;;
71125;SDS011;58785;55.566;38.058;2024-03-23T12:04:33;16.45;;;5.97;;
71125;SDS011;58785;55.566;38.058;2024-03-23T12:09:40;15.63;;;5.80;;
71125;SDS011;58785;55.566;38.058;2024-03-23T12:12:10;15.85;;;6.20;;
71125;SDS011;58785;55.566;38.058;2024-03-23T12:14:40;14.93;;;6.63;;
71125;SDS011;58785;55.566;38.058;2024-03-23T12:17:08;15.48;;;5.97;;
71125;SDS011;58785;55.566;38.058;2024-03-23T12:19:41;16.33;;;7.28;;
71125;SDS011;58785;55.566;38.058;2024-03-23T12:22:07;17.15;;;6.63;;
71125;SDS011;58785;55.566;38.058;2024-03-23T12:24:34;16.27;;;6.80;;
71125;SDS011;58785;55.566;38.058;2024-03-23T12:27:00;15.53;;;6.07;;
71125;SDS011;58785;55.566;38.058;2024-03-23T12:29:31;15.57;;;6.55;;
71125;SDS011;58785;55.566;38.058;2024-03-23T12:32:00;16.70;;;6.82;;
71125;SDS011;58785;55.566;38.058;2024-03-23T12:34:27;14.35;;;6.13;;
71125;SDS011;58785;55.566;38.058;2024-03-23T12:36:53;15.30;;;6.53;;
71125;SDS011;58785;55.566;38.058;2024-03-23T12:39:19;17.67;;;6.97;;
71125;SDS011;58785;55.566;38.058;2024-03-23T12:41:51;17.95;;;7.10;;
71125;SDS011;58785;55.566;38.058;2024-03-23T12:44:19;16.98;;;6.93;;
71125;SDS011;58785;55.566;38.058;2024-03-23T12:46:46;17.13;;;7.20;;
71125;SDS011;58785;55.566;38.058;2024-03-23T12:49:12;19.23;;;7.43;;
71125;SDS011;58785;55.566;38.058;2024-03-23T12:51:38;16.47;;;7.47;;
71125;SDS011;58785;55.566;38.058;2024-03-23T12:54:04;17.20;;;7.18;;
71125;SDS011;58785;55.566;38.058;2024-03-23T12:56:30;17.25;;;7.28;;
71125;SDS011;58785;55.566;38.058;2024-03-23T12:58:56;17.07;;;7.20;;
71125;SDS011;58785;55.566;38.058;2024-03-23T13:01:25;18.73;;;8.00;;
71125;SDS011;58785;55.566;38.058;2024-03-23T13:03:51;20.48;;;8.40;;
71125;SDS011;58785;55.566;38.058;2024-03-23T13:06:18;16.27;;;7.90;;
71125;SDS011;58785;55.566;38.058;2024-03-23T13:08:47;22.77;;;9.43;;
71125;SDS011;58785;55.566;38.058;2024-03-23T13:11:15;19.43;;;9.00;;
71125;SDS011;58785;55.566;38.058;2024-03-23T13:13:41;18.10;;;7.90;;
71125;SDS011;58785;55.566;38.058;2024-03-23T13:16:07;17.77;;;7.57;;
71125;SDS011;58785;55.566;38.058;2024-03-23T13:18:33;17.48;;;7.88;;
71125;SDS011;58785;55.566;38.058;2024-03-23T13:20:59;16.93;;;6.57;;
71125;SDS011;58785;55.566;38.058;2024-03-23T13:23:25;17.70;;;7.67;;
71125;SDS011;58785;55.566;38.058;2024-03-23T13:25:54;19.30;;;8.10;;
71125;SDS011;58785;55.566;38.058;2024-03-23T13:28:21;16.90;;;7.60;;
71125;SDS011;58785;55.566;38.058;2024-03-23T13:30:54;17.13;;;7.55;;
71125;SDS011;58785;55.566;38.058;2024-03-23T13:33:21;18.02;;;7.45;;
71125;SDS011;58785;55.566;38.058;2024-03-23T13:38:16;17.42;;;8.02;;
71125;SDS011;58785;55.566;38.058;2024-03-23T13:43:24;19.25;;;8.23;;
71125;SDS011;58785;55.566;38.058;2024-03-23T13:45:57;19.05;;;7.72;;
71125;SDS011;58785;55.566;38.058;2024-03-23T13:48:24;18.57;;;7.10;;
71125;SDS011;58785;55.566;38.058;2024-03-23T13:53:24;18.48;;;7.85;;
71125;SDS011;58785;55.566;38.058;2024-03-23T13:55:51;20.80;;;8.32;;
71125;SDS011;58785;55.566;38.058;2024-03-23T13:58:17;21.07;;;8.43;;
71125;SDS011;58785;55.566;38.058;2024-03-23T14:00:42;16.90;;;7.50;;
71125;SDS011;58785;55.566;38.058;2024-03-23T14:03:08;17.70;;;7.43;;
71125;SDS011;58785;55.566;38.058;2024-03-23T14:05:35;17.83;;;7.18;;
71125;SDS011;58785;55.566;38.058;2024-03-23T14:08:01;19.13;;;7.60;;
71125;SDS011;58785;55.566;38.058;2024-03-23T14:10:27;15.30;;;6.40;;
71125;SDS011;58785;55.566;38.058;2024-03-23T14:12:53;33.38;;;13.18;;
71125;SDS011;58785;55.566;38.058;2024-03-23T14:15:19;24.65;;;10.63;;
71125;SDS011;58785;55.566;38.058;2024-03-23T14:17:44;18.03;;;7.17;;
71125;SDS011;58785;55.566;38.058;2024-03-23T14:20:10;20.23;;;7.77;;
71125;SDS011;58785;55.566;38.058;2024-03-23T14:22:36;20.70;;;8.98;;
71125;SDS011;58785;55.566;38.058;2024-03-23T14:25:03;16.65;;;7.32;;
71125;SDS011;58785;55.566;38.058;2024-03-23T14:27:29;17.73;;;7.10;;
71125;SDS011;58785;55.566;38.058;2024-03-23T14:29:55;18.05;;;7.35;;
71125;SDS011;58785;55.566;38.058;2024-03-23T14:32:21;18.85;;;6.85;;
71125;SDS011;58785;55.566;38.058;2024-03-23T14:34:47;16.60;;;6.27;;
71125;SDS011;58785;55.566;38.058;2024-03-23T14:37:13;16.00;;;6.40;;
71125;SDS011;58785;55.566;38.058;2024-03-23T14:39:41;15.57;;;6.53;;
71125;SDS011;58785;55.566;38.058;2024-03-23T14:42:07;14.57;;;6.23;;
71125;SDS011;58785;55.566;38.058;2024-03-23T14:44:36;16.10;;;5.80;;
71125;SDS011;58785;55.566;38.058;2024-03-23T14:47:01;15.87;;;5.93;;
71125;SDS011;58785;55.566;38.058;2024-03-23T14:49:27;14.27;;;5.83;;
71125;SDS011;58785;55.566;38.058;2024-03-23T14:51:52;13.93;;;5.93;;
71125;SDS011;58785;55.566;38.058;2024-03-23T14:54:18;14.30;;;5.97;;
71125;SDS011;58785;55.566;38.058;2024-03-23T14:56:43;16.50;;;6.30;;
71125;SDS011;58785;55.566;38.058;2024-03-23T14:59:09;18.63;;;7.18;;
71125;SDS011;58785;55.566;38.058;2024-03-23T15:01:35;15.90;;;7.17;;
71125;SDS011;58785;55.566;38.058;2024-03-23T15:04:00;17.13;;;7.35;;
71125;SDS011;58785;55.566;38.058;2024-03-23T15:06:26;18.17;;;6.90;;
71125;SDS011;58785;55.566;38.058;2024-03-23T15:08:51;17.87;;;7.67;;
71125;SDS011;58785;55.566;38.058;2024-03-23T15:11:17;17.08;;;8.30;;
71125;SDS011;58785;55.566;38.058;2024-03-23T15:13:45;21.15;;;9.15;;
71125;SDS011;58785;55.566;38.058;2024-03-23T15:16:16;19.38;;;7.70;;
71125;SDS011;58785;55.566;38.058;2024-03-23T15:18:44;19.43;;;7.70;;
71125;SDS011;58785;55.566;38.058;2024-03-23T15:21:10;17.27;;;7.05;;
71125;SDS011;58785;55.566;38.058;2024-03-23T15:23:37;17.85;;;6.05;;
71125;SDS011;58785;55.566;38.058;2024-03-23T15:26:03;15.90;;;6.97;;
71125;SDS011;58785;55.566;38.058;2024-03-23T15:28:29;15.00;;;6.60;;
71125;SDS011;58785;55.566;38.058;2024-03-23T15:31:08;20.23;;;7.15;;
71125;SDS011;58785;55.566;38.058;2024-03-23T15:33:37;15.20;;;6.22;;